Time;durP1;ratioP1;P1;durP2;ratioP2;P2;SDS_P1;SDS_P2;PMS_P1;PMS_P2;Temp;Humidity;BMP_temperature;BMP_pressure;BME280_temperature;BME280_humidity;BME280_pressure;Samples;Min_cycle;Max_cycle;Signal;HPM_P1;HPM_P2
2024/03/28 00:02:15;;;;;;;1.95;0.80;;;7.70;99.90;;;;;;4778282;29;20077;-81
2024/03/28 00:04:41;;;;;;;2.05;0.63;;;7.80;99.90;;;;;;4777991;29;20107;-82
2024/03/28 00:07:07;;;;;;;2.88;0.90;;;7.70;99.90;;;;;;4777809;29;20042;-81
2024/03/28 00:09:33;;;;;;;2.05;0.77;;;7.80;99.90;;;;;;4778014;29;20085;-81
2024/03/28 00:11:59;;;;;;;2.00;1.15;;;7.80;99.90;;;;;;4777912;29;20127;-81
2024/03/28 00:14:26;;;;;;;2.95;1.10;;;7.80;99.90;;;;;;4792482;29;20480;-81
2024/03/28 00:16:52;;;;;;;2.00;0.95;;;7.80;99.90;;;;;;4807587;29;20059;-81
2024/03/28 00:19:19;;;;;;;1.98;0.70;;;7.80;99.90;;;;;;4807260;29;20046;-81
2024/03/28 00:21:46;;;;;;;1.75;0.80;;;7.80;99.90;;;;;;4777555;29;20050;-81
2024/03/28 00:24:12;;;;;;;2.55;1.25;;;7.80;99.90;;;;;;4778201;29;20051;-80
2024/03/28 00:26:38;;;;;;;2.13;0.80;;;7.90;99.90;;;;;;4777849;29;20057;-81
2024/03/28 00:29:05;;;;;;;2.40;1.15;;;7.90;99.90;;;;;;4778047;29;20133;-81
2024/03/28 00:31:31;;;;;;;2.53;1.00;;;7.90;99.90;;;;;;4792137;29;20050;-82
2024/03/28 00:33:57;;;;;;;2.58;1.40;;;7.90;99.90;;;;;;4777341;29;20046;-81
2024/03/28 00:36:24;;;;;;;2.30;1.00;;;7.90;99.90;;;;;;4778402;29;20046;-82
2024/03/28 00:38:50;;;;;;;2.97;1.23;;;7.90;99.90;;;;;;4780783;29;20488;-81
2024/03/28 00:41:16;;;;;;;2.58;1.15;;;7.90;99.90;;;;;;4780814;29;20049;-81
2024/03/28 00:43:43;;;;;;;2.50;1.23;;;7.90;99.90;;;;;;4797348;29;20043;-81
2024/03/28 00:46:09;;;;;;;2.17;0.93;;;7.90;99.90;;;;;;4805798;29;20046;-81
2024/03/28 00:48:35;;;;;;;2.17;1.10;;;7.90;99.90;;;;;;4795340;29;20054;-81
2024/03/28 00:51:02;;;;;;;2.45;1.10;;;7.90;99.90;;;;;;4795569;29;20046;-81
2024/03/28 00:53:28;;;;;;;2.33;1.05;;;7.90;99.90;;;;;;4795208;29;20056;-81
2024/03/28 00:55:54;;;;;;;3.10;1.58;;;7.90;99.90;;;;;;4795307;29;20506;-81
2024/03/28 00:58:20;;;;;;;2.38;1.00;;;7.90;99.90;;;;;;4795192;29;20046;-81
2024/03/28 01:00:48;;;;;;;2.30;1.20;;;7.90;99.90;;;;;;4795083;29;20522;-81
2024/03/28 01:03:15;;;;;;;2.38;1.10;;;7.90;99.90;;;;;;4780295;29;20066;-81
2024/03/28 01:05:42;;;;;;;3.00;1.48;;;8.00;99.90;;;;;;4780380;29;20057;-81
2024/03/28 01:08:09;;;;;;;2.80;1.48;;;8.00;99.90;;;;;;4795103;29;20092;-81
2024/03/28 01:10:38;;;;;;;2.63;1.30;;;8.00;99.90;;;;;;4801055;29;20046;-81
2024/03/28 01:13:05;;;;;;;3.13;1.33;;;8.00;99.90;;;;;;4794232;29;20054;-81
2024/03/28 01:15:34;;;;;;;3.20;1.25;;;8.00;99.90;;;;;;4796389;29;20050;-81
2024/03/28 01:18:00;;;;;;;3.13;1.30;;;8.00;99.90;;;;;;4794819;29;20068;-81
2024/03/28 01:20:26;;;;;;;2.40;1.10;;;7.90;99.90;;;;;;4795471;29;20046;-82
2024/03/28 01:22:52;;;;;;;3.15;1.38;;;7.90;99.90;;;;;;4790628;29;20123;-81
2024/03/28 01:25:18;;;;;;;2.70;1.10;;;7.90;99.90;;;;;;4800569;29;20058;-82
2024/03/28 01:27:46;;;;;;;1.95;1.00;;;7.90;99.90;;;;;;4779600;29;20060;-81
2024/03/28 01:30:12;;;;;;;2.30;1.00;;;7.90;99.90;;;;;;4796963;29;20126;-81
2024/03/28 01:32:38;;;;;;;2.13;1.10;;;7.90;99.90;;;;;;4779952;29;20056;-82
2024/03/28 01:35:07;;;;;;;2.47;1.20;;;7.90;99.90;;;;;;4795822;29;20412;-81
2024/03/28 01:37:33;;;;;;;2.70;1.42;;;7.80;99.90;;;;;;4795022;29;20050;-82
2024/03/28 01:40:03;;;;;;;2.22;1.10;;;7.80;99.90;;;;;;4807451;29;20053;-82
2024/03/28 01:42:29;;;;;;;3.28;1.23;;;7.80;99.90;;;;;;4796241;29;20414;-82
2024/03/28 01:44:55;;;;;;;2.05;0.90;;;7.80;99.90;;;;;;4806192;29;20042;-82
2024/03/28 01:47:22;;;;;;;2.40;1.48;;;7.80;99.90;;;;;;4811160;29;20495;-82
2024/03/28 01:49:49;;;;;;;3.63;1.20;;;7.80;99.90;;;;;;4792249;29;20043;-81
2024/03/28 01:52:16;;;;;;;2.35;0.93;;;7.80;99.90;;;;;;4762167;29;20520;-82
2024/03/28 01:54:43;;;;;;;2.42;0.98;;;7.80;99.90;;;;;;4780448;29;20046;-82
2024/03/28 01:57:11;;;;;;;2.38;1.15;;;7.80;99.90;;;;;;4780138;29;20054;-82
2024/03/28 01:59:39;;;;;;;2.17;0.90;;;7.80;99.90;;;;;;4781983;29;20054;-82
2024/03/28 02:02:09;;;;;;;2.40;1.20;;;7.80;99.90;;;;;;4809199;29;20072;-82
2024/03/28 02:04:35;;;;;;;2.55;1.33;;;7.90;99.90;;;;;;4801167;29;20058;-81
2024/03/28 02:07:01;;;;;;;2.55;1.25;;;7.90;99.90;;;;;;4794175;29;20050;-82
2024/03/28 02:09:28;;;;;;;2.50;1.00;;;7.90;99.90;;;;;;4794156;29;20054;-81
2024/03/28 02:11:55;;;;;;;2.10;1.13;;;7.90;99.90;;;;;;4814442;29;20050;-81
2024/03/28 02:14:21;;;;;;;2.75;1.05;;;7.90;99.90;;;;;;4794558;29;20417;-81
2024/03/28 02:16:47;;;;;;;2.15;1.10;;;7.90;99.90;;;;;;4808933;29;20042;-81
2024/03/28 02:19:13;;;;;;;2.78;0.95;;;7.90;99.90;;;;;;4793968;29;20499;-81
2024/03/28 02:21:39;;;;;;;2.72;1.00;;;7.90;99.90;;;;;;4806236;29;20158;-81
2024/03/28 02:24:07;;;;;;;2.60;1.38;;;7.90;99.90;;;;;;4782122;29;20467;-81
2024/03/28 02:26:33;;;;;;;2.90;1.25;;;7.90;99.90;;;;;;4793671;29;20058;-81
2024/03/28 02:29:01;;;;;;;2.15;0.90;;;7.90;99.90;;;;;;4779537;29;20061;-81
2024/03/28 02:31:27;;;;;;;2.17;1.17;;;7.90;99.90;;;;;;4779021;29;20202;-82
2024/03/28 02:33:53;;;;;;;2.03;1.08;;;7.90;99.90;;;;;;4778846;29;20043;-81
2024/03/28 02:36:19;;;;;;;2.45;1.00;;;7.90;99.90;;;;;;4793712;29;20047;-81
2024/03/28 02:38:45;;;;;;;2.30;1.05;;;8.00;99.90;;;;;;4779092;29;20506;-82
2024/03/28 02:41:11;;;;;;;3.22;1.10;;;8.00;99.90;;;;;;4793651;29;20496;-81
2024/03/28 02:43:37;;;;;;;2.13;0.90;;;8.00;99.90;;;;;;4778715;29;20046;-82
2024/03/28 02:46:03;;;;;;;2.20;0.80;;;8.00;99.90;;;;;;4778980;29;20047;-81
2024/03/28 02:48:29;;;;;;;1.73;0.75;;;8.00;99.90;;;;;;4796437;29;20054;-82
2024/03/28 02:50:55;;;;;;;1.95;0.88;;;8.00;99.90;;;;;;4792994;29;20058;-82
2024/03/28 02:53:21;;;;;;;2.30;0.77;;;8.00;99.90;;;;;;4778622;29;20046;-81
2024/03/28 02:55:51;;;;;;;1.67;0.70;;;8.00;99.90;;;;;;4775406;29;20049;-81
2024/03/28 02:58:17;;;;;;;1.63;0.75;;;8.00;99.90;;;;;;4755701;29;20049;-86
2024/03/28 03:00:43;;;;;;;2.15;0.90;;;8.00;99.90;;;;;;4778764;29;20571;-87
2024/03/28 03:03:09;;;;;;;1.90;0.75;;;7.90;99.90;;;;;;4779447;29;20125;-87
2024/03/28 03:05:35;;;;;;;1.88;0.82;;;7.90;99.90;;;;;;4776008;29;20108;-86
2024/03/28 03:08:01;;;;;;;1.55;0.60;;;7.90;99.90;;;;;;4794244;29;20449;-88
2024/03/28 03:10:28;;;;;;;1.30;0.63;;;7.90;99.90;;;;;;4809028;29;20050;-87
2024/03/28 03:12:54;;;;;;;2.38;0.73;;;7.90;99.90;;;;;;4779218;29;20042;-87
2024/03/28 03:15:20;;;;;;;1.65;0.73;;;7.90;99.90;;;;;;4779030;29;20054;-87
2024/03/28 03:17:46;;;;;;;1.85;0.80;;;7.90;99.90;;;;;;4778942;29;20083;-87
2024/03/28 03:20:14;;;;;;;1.48;0.60;;;7.90;99.90;;;;;;4778697;29;20050;-87
2024/03/28 03:22:48;;;;;;;1.35;0.68;;;7.90;99.90;;;;;;4793740;29;20065;-86
2024/03/28 03:25:28;;;;;;;1.83;0.77;;;7.90;99.90;;;;;;4793464;29;20051;-87
2024/03/28 03:36:10;;;;;;;2.15;0.80;;;8.00;99.90;;;;;;4782414;29;20050;-87
2024/03/28 03:38:36;;;;;;;3.05;1.23;;;8.00;99.90;;;;;;4779069;29;20043;-87
2024/03/28 03:41:02;;;;;;;2.30;1.00;;;8.00;99.90;;;;;;4764136;29;20476;-87
2024/03/28 03:43:28;;;;;;;3.15;1.20;;;8.00;99.90;;;;;;4778860;29;20055;-86
2024/03/28 03:45:55;;;;;;;2.45;0.90;;;8.00;99.90;;;;;;4779148;29;20187;-87
2024/03/28 03:48:22;;;;;;;2.05;0.90;;;8.00;99.90;;;;;;4775436;29;20061;-87
2024/03/28 03:50:52;;;;;;;2.67;1.08;;;8.00;99.90;;;;;;4777313;29;20099;-87
2024/03/28 03:53:19;;;;;;;1.80;0.93;;;8.00;99.90;;;;;;4833679;29;20042;-87
2024/03/28 03:55:56;;;;;;;2.15;0.90;;;8.00;99.90;;;;;;4797446;29;20058;-88
2024/03/28 03:58:22;;;;;;;2.47;0.90;;;8.00;99.90;;;;;;4793996;29;20054;-87
2024/03/28 04:00:48;;;;;;;1.55;0.73;;;7.90;99.90;;;;;;4793268;29;20059;-87
2024/03/28 04:03:14;;;;;;;1.67;0.93;;;7.90;99.90;;;;;;4778859;29;20523;-87
2024/03/28 04:05:40;;;;;;;1.80;0.70;;;7.80;99.90;;;;;;4778665;29;20069;-87
2024/03/28 04:08:07;;;;;;;2.03;1.02;;;7.70;99.90;;;;;;4779266;29;20473;-88
2024/03/28 04:10:33;;;;;;;2.10;0.98;;;7.70;99.90;;;;;;4809169;29;20080;-87
2024/03/28 04:12:59;;;;;;;2.55;0.77;;;7.60;99.90;;;;;;4781693;29;20046;-87
2024/03/28 04:15:25;;;;;;;2.97;0.90;;;7.60;99.90;;;;;;4785050;29;20085;-87
2024/03/28 04:17:51;;;;;;;1.50;0.70;;;7.60;99.90;;;;;;4807123;29;20137;-87
2024/03/28 04:20:17;;;;;;;1.55;0.60;;;7.50;99.90;;;;;;4782225;29;20042;-87
2024/03/28 04:22:43;;;;;;;1.92;0.70;;;7.50;99.90;;;;;;4781711;29;20066;-87
2024/03/28 04:25:09;;;;;;;2.55;0.90;;;7.50;99.90;;;;;;4797281;29;20194;-87
2024/03/28 04:27:35;;;;;;;1.58;0.68;;;7.50;99.90;;;;;;4778719;29;20345;-87
2024/03/28 04:30:06;;;;;;;1.77;0.70;;;7.40;99.90;;;;;;4790133;29;20042;-87
2024/03/28 04:32:33;;;;;;;2.20;1.10;;;7.40;99.90;;;;;;4812082;29;20599;-87
2024/03/28 04:34:59;;;;;;;1.58;0.70;;;7.30;99.90;;;;;;4781437;29;20057;-87
2024/03/28 04:37:25;;;;;;;2.13;0.82;;;7.30;99.90;;;;;;4781492;29;20054;-88
2024/03/28 04:39:51;;;;;;;1.83;0.88;;;7.30;99.90;;;;;;4781556;29;20563;-87
2024/03/28 04:42:17;;;;;;;1.88;0.75;;;7.30;99.90;;;;;;4796657;29;20046;-87
2024/03/28 04:44:43;;;;;;;3.05;1.27;;;7.30;99.90;;;;;;4767554;29;20046;-87
2024/03/28 04:47:09;;;;;;;2.40;1.25;;;7.30;99.90;;;;;;4814350;29;20522;-87
2024/03/28 04:49:35;;;;;;;2.67;0.95;;;7.30;99.90;;;;;;4806674;29;20504;-87
2024/03/28 04:52:01;;;;;;;2.50;1.25;;;7.20;99.90;;;;;;4803694;29;20057;-87
2024/03/28 04:54:27;;;;;;;3.35;1.02;;;7.20;99.90;;;;;;4765933;29;20055;-87
2024/03/28 04:56:53;;;;;;;2.55;1.00;;;7.20;99.90;;;;;;4781739;29;20376;-86
2024/03/28 04:59:19;;;;;;;3.00;1.33;;;7.20;99.90;;;;;;4781323;29;20049;-87
2024/03/28 05:01:45;;;;;;;2.20;0.90;;;7.10;99.90;;;;;;4781382;29;20046;-86
2024/03/28 05:04:11;;;;;;;2.25;1.10;;;7.10;99.90;;;;;;4779227;29;20050;-87
2024/03/28 05:06:37;;;;;;;2.47;1.15;;;7.10;99.90;;;;;;4781866;29;20615;-87
2024/03/28 05:09:03;;;;;;;3.22;1.40;;;7.10;99.90;;;;;;4785105;29;20046;-87
2024/03/28 05:11:29;;;;;;;2.42;1.10;;;7.10;99.90;;;;;;4795290;29;20054;-87
2024/03/28 05:13:55;;;;;;;2.92;1.52;;;7.00;99.90;;;;;;4795985;29;20117;-87
2024/03/28 05:16:21;;;;;;;3.25;1.17;;;7.00;99.90;;;;;;4808450;29;20498;-87
2024/03/28 05:18:47;;;;;;;2.40;1.20;;;7.00;99.90;;;;;;4803600;29;20520;-87
2024/03/28 05:21:13;;;;;;;2.55;1.05;;;7.00;99.90;;;;;;4781007;29;20054;-87
2024/03/28 05:23:39;;;;;;;3.67;1.08;;;7.00;99.90;;;;;;4781153;29;20449;-87
2024/03/28 05:26:05;;;;;;;2.00;0.90;;;7.00;99.90;;;;;;4781233;29;20065;-87
2024/03/28 05:28:37;;;;;;;2.13;0.82;;;6.90;99.90;;;;;;4808190;29;20042;-88
2024/03/28 05:31:15;;;;;;;2.67;1.00;;;6.90;99.90;;;;;;4788837;29;20087;-80
2024/03/28 05:33:41;;;;;;;2.78;1.35;;;6.90;99.90;;;;;;4809599;29;20042;-80
2024/03/28 05:36:08;;;;;;;2.08;0.82;;;6.90;99.90;;;;;;4779957;29;20141;-80
2024/03/28 05:38:34;;;;;;;2.25;1.10;;;6.90;99.90;;;;;;4794507;29;20194;-80
2024/03/28 05:41:00;;;;;;;2.33;1.00;;;6.90;99.90;;;;;;4789202;29;20508;-80
2024/03/28 05:43:26;;;;;;;3.38;1.25;;;6.90;99.90;;;;;;4779656;29;20084;-80
2024/03/28 05:45:52;;;;;;;2.33;1.20;;;6.90;99.90;;;;;;4779560;29;20537;-80
2024/03/28 05:48:18;;;;;;;3.20;1.63;;;6.90;99.90;;;;;;4783628;29;20078;-80
2024/03/28 05:50:44;;;;;;;2.42;1.00;;;6.80;99.90;;;;;;4792750;29;20061;-80
2024/03/28 05:53:10;;;;;;;2.58;1.10;;;6.80;99.90;;;;;;4779464;29;20042;-80
2024/03/28 05:55:37;;;;;;;2.15;1.05;;;6.80;99.90;;;;;;4780120;29;20047;-80
2024/03/28 05:58:05;;;;;;;2.40;1.10;;;6.80;99.90;;;;;;4805181;29;20050;-81
2024/03/28 06:00:31;;;;;;;2.10;1.20;;;6.80;99.90;;;;;;4779553;29;20126;-80
2024/03/28 06:02:57;;;;;;;2.05;0.88;;;6.80;99.90;;;;;;4779155;29;20055;-82
2024/03/28 06:05:23;;;;;;;2.45;1.10;;;6.80;99.90;;;;;;4779296;29;20046;-82
2024/03/28 06:07:49;;;;;;;3.58;1.70;;;6.90;99.90;;;;;;4766746;29;20061;-81
2024/03/28 06:10:16;;;;;;;2.85;0.85;;;6.90;99.90;;;;;;4779070;29;20526;-82
2024/03/28 06:12:42;;;;;;;2.25;0.88;;;7.00;99.90;;;;;;4779095;29;20057;-82
2024/03/28 06:15:08;;;;;;;2.35;1.23;;;7.10;99.90;;;;;;4779389;29;20082;-82
2024/03/28 06:17:34;;;;;;;2.17;0.90;;;7.20;99.90;;;;;;4794068;29;20050;-82
2024/03/28 06:20:00;;;;;;;2.45;0.77;;;7.20;99.90;;;;;;4779066;29;20054;-81
2024/03/28 06:22:26;;;;;;;3.50;1.50;;;7.30;99.90;;;;;;4778994;29;20050;-82
2024/03/28 06:24:52;;;;;;;3.65;1.45;;;7.30;99.90;;;;;;4778864;29;20115;-81
2024/03/28 06:27:18;;;;;;;2.45;0.90;;;7.40;99.90;;;;;;4778944;29;20457;-81
2024/03/28 06:29:50;;;;;;;2.13;0.93;;;7.50;99.90;;;;;;4778839;29;20050;-82
2024/03/28 06:32:24;;;;;;;2.80;1.30;;;7.50;99.90;;;;;;4779699;29;20042;-82
2024/03/28 06:34:58;;;;;;;3.22;1.33;;;7.60;99.90;;;;;;4777936;29;20141;-82
2024/03/28 06:37:24;;;;;;;2.70;1.40;;;7.60;99.90;;;;;;4808407;29;20067;-82
2024/03/28 06:39:51;;;;;;;2.35;1.25;;;7.70;99.90;;;;;;4793506;29;20046;-82
2024/03/28 06:42:17;;;;;;;2.95;1.48;;;7.70;99.90;;;;;;4795031;29;20034;-82
2024/03/28 06:44:49;;;;;;;2.90;1.33;;;7.70;99.90;;;;;;4808471;29;20091;-81
2024/03/28 06:47:16;;;;;;;3.63;1.60;;;7.70;99.90;;;;;;4793392;29;20084;-81
2024/03/28 06:49:42;;;;;;;4.70;1.73;;;7.70;99.90;;;;;;4778682;29;20103;-82
2024/03/28 06:52:09;;;;;;;3.25;1.65;;;7.70;99.90;;;;;;4793249;29;20095;-82
2024/03/28 06:54:35;;;;;;;4.95;2.30;;;7.70;99.90;;;;;;4808331;29;20057;-82
2024/03/28 06:57:01;;;;;;;3.88;1.65;;;7.70;99.90;;;;;;4778521;29;20388;-80
2024/03/28 06:59:27;;;;;;;3.63;1.52;;;7.70;99.90;;;;;;4791177;29;20099;-84
2024/03/28 07:01:54;;;;;;;4.63;2.10;;;7.80;99.90;;;;;;4771237;29;20034;-85
2024/03/28 07:04:20;;;;;;;3.72;1.80;;;8.00;99.90;;;;;;4779765;29;20504;-87
2024/03/28 07:06:46;;;;;;;2.78;1.40;;;8.20;99.90;;;;;;4778953;29;20046;-84
2024/03/28 07:09:15;;;;;;;3.67;1.63;;;8.30;99.90;;;;;;4778646;29;20058;-84
2024/03/28 07:11:45;;;;;;;2.88;1.52;;;8.50;99.90;;;;;;4793631;29;20051;-84
2024/03/28 07:14:18;;;;;;;3.45;1.70;;;8.70;99.90;;;;;;4778871;29;20038;-84
2024/03/28 07:16:47;;;;;;;4.22;1.50;;;8.80;99.90;;;;;;4779153;29;20415;-84
2024/03/28 07:19:14;;;;;;;2.53;1.20;;;8.80;99.90;;;;;;4807972;29;20087;-84
2024/03/28 07:21:40;;;;;;;3.30;1.45;;;8.90;99.90;;;;;;4778414;29;20062;-84
2024/03/28 07:24:09;;;;;;;4.07;1.67;;;8.90;99.90;;;;;;4808274;29;20456;-84
2024/03/28 07:26:37;;;;;;;2.38;1.02;;;8.90;99.90;;;;;;4778698;29;20050;-84
2024/03/28 07:29:03;;;;;;;2.58;1.02;;;8.90;99.90;;;;;;4778743;29;20160;-81
2024/03/28 07:31:30;;;;;;;1.75;0.80;;;9.00;99.90;;;;;;4798634;29;20397;-80
2024/03/28 07:33:57;;;;;;;2.40;1.15;;;9.10;99.90;;;;;;4775991;29;20040;-80
2024/03/28 07:36:22;;;;;;;3.50;1.10;;;9.20;99.90;;;;;;4797031;29;20047;-80
2024/03/28 07:38:48;;;;;;;2.42;0.95;;;9.30;99.90;;;;;;4791133;29;20099;-80
2024/03/28 07:41:14;;;;;;;2.13;0.77;;;9.40;99.90;;;;;;4777805;29;20141;-80
2024/03/28 07:43:41;;;;;;;1.77;0.80;;;9.50;99.90;;;;;;4777966;29;20468;-80
2024/03/28 07:46:07;;;;;;;1.55;0.98;;;9.60;99.90;;;;;;4781381;29;20065;-80
2024/03/28 07:48:33;;;;;;;1.52;0.60;;;9.60;99.90;;;;;;4783629;29;20081;-80
2024/03/28 07:51:00;;;;;;;1.40;0.65;;;9.70;99.90;;;;;;4783579;29;20042;-80
2024/03/28 07:53:27;;;;;;;2.28;0.93;;;9.70;99.90;;;;;;4798297;29;20491;-80
2024/03/28 07:55:53;;;;;;;2.05;1.00;;;9.70;99.90;;;;;;4812073;29;20046;-80
2024/03/28 07:58:20;;;;;;;2.28;1.15;;;9.70;99.90;;;;;;4798757;29;20053;-80
2024/03/28 08:00:47;;;;;;;3.08;1.45;;;9.60;99.90;;;;;;4783833;29;20042;-80
2024/03/28 08:03:18;;;;;;;2.38;0.98;;;9.60;99.90;;;;;;4798687;29;20098;-81
2024/03/28 08:05:49;;;;;;;2.23;1.00;;;9.50;99.90;;;;;;4784206;29;20507;-81
2024/03/28 08:08:19;;;;;;;2.17;1.20;;;9.50;99.90;;;;;;4779112;29;20125;-81
2024/03/28 08:10:44;;;;;;;2.50;1.02;;;9.50;99.90;;;;;;4798709;29;20077;-80
2024/03/28 08:13:11;;;;;;;2.30;1.40;;;9.40;99.90;;;;;;4798215;29;20492;-80
2024/03/28 08:15:37;;;;;;;2.47;1.15;;;9.40;99.90;;;;;;4813343;29;20046;-80
2024/03/28 08:18:06;;;;;;;2.85;1.25;;;9.40;99.90;;;;;;4798559;29;20054;-80
2024/03/28 08:20:33;;;;;;;2.53;1.02;;;9.40;99.90;;;;;;4780584;29;20046;-82
2024/03/28 08:23:00;;;;;;;3.05;1.45;;;9.40;99.90;;;;;;4782032;29;20059;-82
2024/03/28 08:25:27;;;;;;;4.10;1.50;;;9.40;99.90;;;;;;4798390;29;20105;-80
2024/03/28 08:27:53;;;;;;;2.17;1.27;;;9.30;99.90;;;;;;4783632;29;20504;-80
2024/03/28 08:30:19;;;;;;;2.58;1.15;;;9.20;99.90;;;;;;4783462;29;20049;-81
2024/03/28 08:32:45;;;;;;;2.53;1.10;;;9.10;99.90;;;;;;4798358;29;20046;-81
2024/03/28 08:35:13;;;;;;;2.53;1.00;;;9.00;99.90;;;;;;4784267;29;20046;-81
2024/03/28 08:37:40;;;;;;;2.05;0.95;;;8.90;99.90;;;;;;4783337;29;20060;-80
2024/03/28 08:40:10;;;;;;;1.90;0.85;;;8.80;99.90;;;;;;4812910;29;20074;-80
2024/03/28 08:42:38;;;;;;;1.52;0.70;;;8.70;99.90;;;;;;4795625;29;20142;-80
2024/03/28 08:45:04;;;;;;;2.03;0.95;;;8.60;99.90;;;;;;4813589;29;20047;-81
2024/03/28 08:47:30;;;;;;;1.92;1.10;;;8.50;99.90;;;;;;4793302;29;20060;-80
2024/03/28 08:49:57;;;;;;;2.67;0.98;;;8.40;99.90;;;;;;4780927;29;20058;-80
2024/03/28 08:52:23;;;;;;;1.55;0.80;;;8.30;99.90;;;;;;4785232;29;20046;-80
2024/03/28 08:54:49;;;;;;;2.72;1.10;;;8.30;99.90;;;;;;4798256;29;20526;-80
2024/03/28 08:57:15;;;;;;;1.20;0.75;;;8.30;99.90;;;;;;4795869;29;20043;-80
2024/03/28 08:59:42;;;;;;;2.67;1.13;;;8.30;99.90;;;;;;4765544;29;20466;-80
2024/03/28 09:02:10;;;;;;;3.58;1.15;;;8.30;99.90;;;;;;4765764;29;20053;-80
2024/03/28 09:04:36;;;;;;;2.25;0.95;;;8.20;99.90;;;;;;4780592;29;20058;-80
2024/03/28 09:07:03;;;;;;;2.22;1.05;;;8.10;99.90;;;;;;4800550;29;20058;-80
2024/03/28 09:09:28;;;;;;;1.40;0.73;;;8.10;99.90;;;;;;4767337;29;20050;-79
2024/03/28 09:11:57;;;;;;;2.42;1.00;;;8.20;99.90;;;;;;4795365;29;20081;-80
2024/03/28 09:14:23;;;;;;;0.98;0.50;;;8.20;99.90;;;;;;4810347;29;20042;-79
2024/03/28 09:16:49;;;;;;;1.52;0.98;;;8.30;99.90;;;;;;4794872;29;20046;-79
2024/03/28 09:19:15;;;;;;;1.17;0.45;;;8.30;99.90;;;;;;4794829;29;20465;-80
2024/03/28 09:21:41;;;;;;;1.15;0.50;;;8.20;99.90;;;;;;4779896;29;20134;-80
2024/03/28 09:24:09;;;;;;;1.73;0.60;;;8.30;99.90;;;;;;4795693;29;20183;-79
2024/03/28 09:26:35;;;;;;;1.00;0.50;;;8.40;99.90;;;;;;4781581;29;20058;-80
2024/03/28 09:29:01;;;;;;;1.02;0.50;;;8.30;99.90;;;;;;4794805;29;20130;-80
2024/03/28 09:31:27;;;;;;;2.33;1.02;;;8.40;99.90;;;;;;4780075;29;20053;-80
2024/03/28 09:33:53;;;;;;;1.38;0.50;;;8.40;99.90;;;;;;4801207;29;20111;-80
2024/03/28 09:36:20;;;;;;;1.00;0.50;;;8.30;99.90;;;;;;4809381;29;20136;-79
2024/03/28 09:38:50;;;;;;;1.13;0.50;;;8.30;99.90;;;;;;4791545;29;20046;-80
2024/03/28 09:41:26;;;;;;;2.15;0.60;;;8.30;99.90;;;;;;4791589;29;20133;-79
2024/03/28 09:44:05;;;;;;;2.53;0.88;;;8.30;99.90;;;;;;4798884;29;20138;-80
2024/03/28 09:46:33;;;;;;;1.85;0.63;;;8.20;99.90;;;;;;4779891;29;20055;-80
2024/03/28 09:49:00;;;;;;;1.83;0.88;;;8.20;99.90;;;;;;4780835;29;20179;-79
2024/03/28 09:51:27;;;;;;;0.93;0.50;;;8.20;99.90;;;;;;4809702;29;20110;-80
2024/03/28 09:53:56;;;;;;;1.25;0.60;;;8.20;99.90;;;;;;4794371;29;20043;-80
2024/03/28 09:56:23;;;;;;;1.25;0.43;;;8.20;99.90;;;;;;4794338;29;20622;-80
2024/03/28 09:58:50;;;;;;;1.58;0.60;;;8.30;99.90;;;;;;4809286;29;20099;-81
2024/03/28 10:01:17;;;;;;;1.13;0.55;;;8.30;99.90;;;;;;4795563;29;20416;-79
2024/03/28 10:04:08;;;;;;;1.92;0.75;;;8.30;99.90;;;;;;4809252;29;20050;-80
2024/03/28 10:06:35;;;;;;;1.17;0.60;;;8.20;99.90;;;;;;4794078;29;20423;-81
2024/03/28 10:09:04;;;;;;;2.65;0.82;;;8.20;99.90;;;;;;4779170;29;20050;-82
2024/03/28 10:11:30;;;;;;;1.38;0.65;;;8.30;99.90;;;;;;4779553;29;20042;-82
2024/03/28 10:13:57;;;;;;;1.30;0.63;;;8.30;99.90;;;;;;4779129;29;20129;-81
2024/03/28 10:16:26;;;;;;;2.47;0.88;;;8.40;99.90;;;;;;4779277;29;20077;-80
2024/03/28 10:18:54;;;;;;;2.15;0.77;;;8.40;99.90;;;;;;4779297;29;20051;-80
2024/03/28 10:21:20;;;;;;;1.73;0.70;;;8.40;99.90;;;;;;4807386;29;20091;-80
2024/03/28 10:23:46;;;;;;;3.13;1.08;;;8.40;99.90;;;;;;4770467;29;20428;-85
2024/03/28 10:26:42;;;;;;;2.03;1.00;;;8.40;99.90;;;;;;4807604;29;20149;-84
2024/03/28 10:29:16;;;;;;;2.08;1.00;;;8.40;99.90;;;;;;4816868;29;20106;-83
2024/03/28 10:31:42;;;;;;;2.55;1.05;;;8.30;99.90;;;;;;4799616;29;20050;-86
2024/03/28 10:34:23;;;;;;;1.67;0.90;;;8.30;99.90;;;;;;4782775;29;20412;-89
2024/03/28 10:36:52;;;;;;;2.30;0.98;;;8.20;99.90;;;;;;4779703;29;20080;-90
2024/03/28 10:39:18;;;;;;;1.70;1.00;;;8.20;99.90;;;;;;4795119;29;20133;-86
2024/03/28 10:41:46;;;;;;;2.50;1.27;;;8.20;99.90;;;;;;4785871;29;20525;-89
2024/03/28 10:44:15;;;;;;;2.33;1.45;;;8.10;99.90;;;;;;4782209;29;20114;-90
2024/03/28 10:46:41;;;;;;;2.25;1.25;;;8.00;99.90;;;;;;4803091;29;20108;-89
2024/03/28 10:49:08;;;;;;;2.13;0.98;;;8.00;99.90;;;;;;4792831;29;20057;-85
2024/03/28 10:51:49;;;;;;;2.25;0.90;;;8.00;99.90;;;;;;4778668;29;20050;-84
2024/03/28 10:54:26;;;;;;;2.08;0.80;;;8.00;99.90;;;;;;4794089;29;20051;-86
2024/03/28 10:56:54;;;;;;;2.22;0.77;;;8.00;99.90;;;;;;4808660;29;20499;-85
2024/03/28 10:59:21;;;;;;;2.50;0.80;;;8.00;99.90;;;;;;4793422;29;20495;-85
2024/03/28 11:01:48;;;;;;;1.52;0.73;;;7.90;99.90;;;;;;4762468;29;20047;-93
2024/03/28 11:04:16;;;;;;;2.35;1.00;;;8.00;99.90;;;;;;4792780;29;20054;-95
2024/03/28 11:06:47;;;;;;;2.75;0.80;;;7.90;99.90;;;;;;4789270;29;20058;-95
2024/03/28 11:09:14;;;;;;;2.40;1.02;;;8.00;99.90;;;;;;4796696;29;20080;-95
2024/03/28 11:11:41;;;;;;;2.10;0.90;;;8.10;99.90;;;;;;4796805;29;20046;-95
2024/03/28 11:14:08;;;;;;;1.88;1.10;;;8.10;99.90;;;;;;4795955;29;20050;-95
2024/03/28 11:16:35;;;;;;;1.92;0.90;;;8.10;99.90;;;;;;4810633;29;20071;-95
2024/03/28 11:19:02;;;;;;;2.13;1.05;;;8.30;99.90;;;;;;4780523;29;20146;-96
2024/03/28 11:21:29;;;;;;;1.27;0.70;;;8.40;99.90;;;;;;4794682;29;20051;-95
2024/03/28 11:23:56;;;;;;;2.58;1.45;;;8.50;99.90;;;;;;4795338;29;20095;-96
2024/03/28 11:26:24;;;;;;;3.05;1.38;;;8.60;99.90;;;;;;4816879;29;20058;-96
2024/03/28 11:29:05;;;;;;;2.50;1.25;;;8.70;99.90;;;;;;4795457;29;20046;-93
2024/03/28 11:31:32;;;;;;;2.47;1.20;;;8.80;99.90;;;;;;4781384;29;20099;-96
2024/03/28 11:34:03;;;;;;;2.80;1.40;;;8.80;99.90;;;;;;4795362;29;20150;-96
2024/03/28 11:36:31;;;;;;;2.80;1.38;;;8.80;99.90;;;;;;4794974;29;20056;-96
2024/03/28 11:39:02;;;;;;;3.47;1.70;;;8.80;99.90;;;;;;4814738;29;20054;-96
2024/03/28 11:46:00;;;;;;;4.22;2.53;;;9.10;99.90;;;;;;4723746;30;20084;-96
2024/03/28 11:48:35;;;;;;;4.60;2.60;;;9.20;99.90;;;;;;4792005;30;20194;-96
2024/03/28 11:51:03;;;;;;;4.25;2.28;;;9.20;99.90;;;;;;4789257;30;20141;-96
2024/03/28 11:53:39;;;;;;;4.82;2.80;;;9.30;99.90;;;;;;4788523;30;20051;-96
2024/03/28 11:56:07;;;;;;;6.65;2.42;;;9.40;99.90;;;;;;4774094;30;20163;-96
2024/03/28 11:58:38;;;;;;;5.60;2.50;;;9.50;99.90;;;;;;4788167;30;20090;-94
2024/03/28 12:01:10;;;;;;;7.15;2.85;;;9.50;99.90;;;;;;4803104;29;20057;-96
2024/03/28 12:08:15;;;;;;;5.75;4.25;;;9.60;99.90;;;;;;4787491;30;20052;-84
2024/03/28 12:10:42;;;;;;;8.48;4.13;;;9.70;99.90;;;;;;4731577;30;20055;-96
2024/03/28 12:13:09;;;;;;;6.97;4.07;;;9.80;99.90;;;;;;4741965;30;20410;-96
2024/03/28 12:15:38;;;;;;;6.00;4.22;;;9.90;99.90;;;;;;4742876;30;20048;-94
2024/03/28 12:18:05;;;;;;;4.88;3.00;;;10.00;99.90;;;;;;4739901;30;20052;-94
2024/03/28 12:20:42;;;;;;;5.55;3.33;;;10.10;99.90;;;;;;4755572;30;20059;-95
2024/03/28 12:23:15;;;;;;;4.15;2.95;;;10.30;99.90;;;;;;4754870;30;20256;-93
2024/03/28 12:25:47;;;;;;;7.38;3.50;;;10.40;99.90;;;;;;4773060;29;20051;-93
2024/03/28 12:28:17;;;;;;;;;;;10.60;99.90;;;;;;4794944;29;20056;-93
2024/03/28 12:30:54;;;;;;;4.75;3.60;;;10.60;99.90;;;;;;4794082;29;19976;-93
2024/03/28 12:33:23;;;;;;;7.15;3.05;;;10.80;99.90;;;;;;4796281;29;20054;-93
2024/03/28 12:35:55;;;;;;;5.50;3.30;;;10.90;99.90;;;;;;4783389;29;20055;-90
2024/03/28 12:38:22;;;;;;;5.50;3.55;;;11.00;99.90;;;;;;4811047;29;20057;-88
2024/03/28 12:40:53;;;;;;;5.90;3.72;;;11.00;99.30;;;;;;4801985;29;20049;-88
2024/03/28 12:43:21;;;;;;;4.32;3.13;;;11.00;98.50;;;;;;4810906;29;20046;-87
2024/03/28 12:45:49;;;;;;;6.78;3.58;;;11.00;98.70;;;;;;4807481;29;20042;-86
2024/03/28 12:48:17;;;;;;;8.18;3.30;;;11.10;98.70;;;;;;4825773;29;20495;-85
2024/03/28 12:50:46;;;;;;;4.88;3.00;;;11.20;98.00;;;;;;4781854;29;20405;-87
2024/03/28 12:53:12;;;;;;;5.35;2.85;;;11.30;98.00;;;;;;4780979;29;20050;-87
2024/03/28 12:55:38;;;;;;;4.38;2.03;;;11.40;97.60;;;;;;4781165;29;20053;-87
2024/03/28 12:58:09;;;;;;;3.65;2.15;;;11.40;97.70;;;;;;4799090;29;20046;-85
2024/03/28 13:00:35;;;;;;;4.40;1.90;;;11.50;97.80;;;;;;4795476;29;20068;-88
2024/03/28 13:03:02;;;;;;;5.13;1.85;;;11.60;97.70;;;;;;4777991;29;20043;-87
2024/03/28 13:05:28;;;;;;;4.43;1.90;;;11.70;97.50;;;;;;4775009;29;20050;-88
2024/03/28 13:07:55;;;;;;;3.33;1.70;;;11.70;96.90;;;;;;4811181;29;20111;-86
2024/03/28 13:10:22;;;;;;;2.58;1.40;;;11.80;96.80;;;;;;4780863;29;20503;-86
2024/03/28 13:12:48;;;;;;;4.30;1.30;;;11.90;96.60;;;;;;4795655;29;20530;-86
2024/03/28 13:15:15;;;;;;;2.70;1.42;;;12.00;96.80;;;;;;4780607;29;20062;-87